createdAt,value
2022-09-25T00:01:34.666Z,8.73
2022-09-25T00:03:36.410Z,8.85
2022-09-25T00:05:44.123Z,8.57
2022-09-25T00:07:45.742Z,7.80
2022-09-25T00:09:47.199Z,8.55
2022-09-25T00:11:49.575Z,8.75
2022-09-25T00:13:52.205Z,7.53
2022-09-25T00:15:58.009Z,7.70
2022-09-25T00:17:59.638Z,7.97
2022-09-25T00:20:01.375Z,8.65
2022-09-25T00:22:02.907Z,8.30
2022-09-25T00:24:07.980Z,8.13
2022-09-25T00:26:09.836Z,9.48
2022-09-25T00:28:16.342Z,8.88
2022-09-25T00:30:19.903Z,9.10
2022-09-25T00:32:21.709Z,9.13
2022-09-25T00:34:23.262Z,9.48
2022-09-25T00:36:25.709Z,9.50
2022-09-25T00:38:27.294Z,9.35
2022-09-25T00:40:28.940Z,8.45
2022-09-25T00:42:30.907Z,8.80
2022-09-25T00:44:56.587Z,8.52
2022-09-25T00:46:59.508Z,7.82
2022-09-25T00:49:10.040Z,7.53
2022-09-25T00:51:15.184Z,7.80
2022-09-25T00:53:28.717Z,8.02
2022-09-25T00:55:35.500Z,7.88
2022-09-25T00:57:39.151Z,7.63
2022-09-25T00:59:46.456Z,7.55
2022-09-25T01:01:48.833Z,8.43
2022-09-25T01:03:50.451Z,8.02
2022-09-25T01:05:53.465Z,7.55
2022-09-25T01:07:57.419Z,7.05
2022-09-25T01:09:59.415Z,7.20
2022-09-25T01:12:01.265Z,7.70
2022-09-25T01:14:05.982Z,7.53
2022-09-25T01:16:20.599Z,7.18
2022-09-25T01:18:44.380Z,7.65
2022-09-25T01:21:01.625Z,7.03
2022-09-25T01:23:31.926Z,7.10
2022-09-25T01:26:05.088Z,6.07
2022-09-25T01:28:44.299Z,6.90
2022-09-25T01:30:52.056Z,6.43
2022-09-25T01:33:05.468Z,6.25
2022-09-25T01:35:33.970Z,6.97
2022-09-25T01:37:43.021Z,7.15
2022-09-25T01:40:01.787Z,6.88
2022-09-25T01:42:11.983Z,6.15
2022-09-25T01:44:40.366Z,6.80
2022-09-25T01:46:53.573Z,6.43
2022-09-25T01:49:06.481Z,6.75
2022-09-25T01:51:24.653Z,6.78
2022-09-25T01:53:34.658Z,7.10
2022-09-25T01:55:42.919Z,6.80
2022-09-25T01:57:53.187Z,6.75
2022-09-25T02:00:06.926Z,7.25
2022-09-25T02:02:30.057Z,7.15
2022-09-25T02:04:42.580Z,7.10
2022-09-25T02:06:47.921Z,6.82
2022-09-25T02:09:09.587Z,6.80
2022-09-25T02:11:12.556Z,7.13
2022-09-25T02:13:17.679Z,6.95
2022-09-25T02:15:27.835Z,6.60
2022-09-25T02:17:54.745Z,6.68
2022-09-25T02:20:18.120Z,6.63
2022-09-25T02:22:26.038Z,6.28
2022-09-25T02:24:43.423Z,7.05
2022-09-25T02:26:45.575Z,6.47
2022-09-25T02:28:49.261Z,6.68
2022-09-25T02:30:56.408Z,6.70
2022-09-25T02:32:58.753Z,7.15
2022-09-25T02:35:01.180Z,6.80
2022-09-25T02:37:03.272Z,6.63
2022-09-25T02:39:10.051Z,6.53
2022-09-25T02:41:32.803Z,6.70
2022-09-25T02:44:11.857Z,6.30
2022-09-25T02:46:32.560Z,6.80
2022-09-25T02:49:04.764Z,6.55
2022-09-25T02:51:21.486Z,6.65
2022-09-25T02:53:35.061Z,7.00
2022-09-25T02:55:47.399Z,6.68
2022-09-25T02:57:54.035Z,6.32
2022-09-25T03:00:01.521Z,6.93
2022-09-25T03:02:03.926Z,6.50
2022-09-25T03:04:06.526Z,7.03
2022-09-25T03:06:12.108Z,6.20
2022-09-25T03:08:35.866Z,6.47
2022-09-25T03:10:38.501Z,6.55
2022-09-25T03:12:40.055Z,6.85
2022-09-25T03:14:45.978Z,6.75
2022-09-25T03:16:55.242Z,6.47
2022-09-25T03:18:57.974Z,6.10
2022-09-25T03:21:04.152Z,6.97
2022-09-25T03:23:05.704Z,6.22
2022-09-25T03:25:07.594Z,5.82
2022-09-25T03:27:09.030Z,6.93
2022-09-25T03:29:14.709Z,6.55
2022-09-25T03:31:16.934Z,6.72
2022-09-25T03:33:20.789Z,6.57
2022-09-25T03:35:22.878Z,6.55
2022-09-25T03:37:27.213Z,6.90
2022-09-25T03:39:30.708Z,6.78
2022-09-25T03:41:39.759Z,7.00
2022-09-25T03:43:43.544Z,6.70
2022-09-25T03:45:46.349Z,7.07
2022-09-25T03:47:50.665Z,7.05
2022-09-25T03:49:52.218Z,6.70
2022-09-25T03:51:56.157Z,7.20
2022-09-25T03:53:58.161Z,7.22
2022-09-25T03:56:01.414Z,7.03
2022-09-25T03:58:03.063Z,6.95
2022-09-25T04:00:08.100Z,7.03
2022-09-25T04:02:15.484Z,7.00
2022-09-25T04:04:16.979Z,7.30
2022-09-25T04:06:24.161Z,7.38
2022-09-25T04:08:27.605Z,7.03
2022-09-25T04:10:29.234Z,7.68
2022-09-25T04:12:32.939Z,6.95
2022-09-25T04:14:38.593Z,7.18
2022-09-25T04:16:40.328Z,6.97
2022-09-25T04:18:42.859Z,7.80
2022-09-25T04:20:46.620Z,7.60
2022-09-25T04:22:48.398Z,7.40
2022-09-25T04:24:51.157Z,8.15
2022-09-25T04:26:53.693Z,8.00
2022-09-25T04:28:55.728Z,7.88
2022-09-25T04:30:57.379Z,7.05
2022-09-25T04:33:21.292Z,7.70
2022-09-25T04:35:22.918Z,8.10
2022-09-25T04:37:27.562Z,7.85
2022-09-25T04:39:35.047Z,7.25
2022-09-25T04:41:36.605Z,7.50
2022-09-25T04:43:40.907Z,7.45
2022-09-25T04:45:47.242Z,6.90
2022-09-25T04:47:52.688Z,7.85
2022-09-25T04:49:54.227Z,7.05
2022-09-25T04:51:56.472Z,7.90
2022-09-25T04:53:57.966Z,7.10
2022-09-25T04:56:04.430Z,8.50
2022-09-25T04:58:06.175Z,7.82
2022-09-25T05:00:09.041Z,7.22
2022-09-25T05:02:12.461Z,7.38
2022-09-25T05:04:16.201Z,7.57
2022-09-25T05:06:17.847Z,7.68
2022-09-25T05:08:19.859Z,7.25
2022-09-25T05:10:23.932Z,7.47
2022-09-25T05:12:28.424Z,7.55
2022-09-25T05:14:30.997Z,7.90
2022-09-25T05:16:32.661Z,7.53
2022-09-25T05:18:39.864Z,8.48
2022-09-25T05:20:41.403Z,7.85
2022-09-25T05:22:42.907Z,7.93
2022-09-25T05:24:44.465Z,8.20
2022-09-25T05:26:49.017Z,8.45
2022-09-25T05:28:50.762Z,8.50
2022-09-25T05:30:56.642Z,7.72
2022-09-25T05:32:58.860Z,9.20
2022-09-25T05:35:01.653Z,8.32
2022-09-25T05:37:03.758Z,8.85
2022-09-25T05:39:09.848Z,8.68
2022-09-25T05:41:15.755Z,8.52
2022-09-25T05:43:17.579Z,8.50
2022-09-25T05:45:21.165Z,8.43
2022-09-25T05:47:26.155Z,8.73
2022-09-25T05:49:28.744Z,8.52
2022-09-25T05:51:31.301Z,9.02
2022-09-25T05:53:33.561Z,8.45
2022-09-25T05:55:35.589Z,9.00
2022-09-25T05:57:38.608Z,8.52
2022-09-25T05:59:40.961Z,8.63
2022-09-25T06:01:42.597Z,8.70
2022-09-25T06:03:44.482Z,9.57
2022-09-25T06:05:46.393Z,9.20
2022-09-25T06:07:53.420Z,9.07
2022-09-25T06:09:54.974Z,9.55
2022-09-25T06:11:59.025Z,9.63
2022-09-25T06:14:00.495Z,9.25
2022-09-25T06:16:02.960Z,9.13
2022-09-25T06:18:09.571Z,9.32
2022-09-25T06:20:15.922Z,8.30
2022-09-25T06:22:18.140Z,8.88
2022-09-25T06:24:20.944Z,9.43
2022-09-25T06:26:25.504Z,9.15
2022-09-25T06:28:27.586Z,9.52
2022-09-25T06:30:34.393Z,8.90
2022-09-25T06:32:36.526Z,9.32
2022-09-25T06:34:38.110Z,9.77
2022-09-25T06:36:39.885Z,10.23
2022-09-25T06:38:41.526Z,10.00
2022-09-25T06:40:43.475Z,11.05
2022-09-25T06:42:46.201Z,9.73
2022-09-25T06:44:47.949Z,10.10
2022-09-25T06:46:54.560Z,10.82
2022-09-25T06:48:57.965Z,11.02
2022-09-25T06:51:00.789Z,11.18
2022-09-25T06:53:02.797Z,10.30
2022-09-25T06:55:04.704Z,10.75
2022-09-25T06:57:10.983Z,10.38
2022-09-25T06:59:14.818Z,9.85
2022-09-25T07:01:16.590Z,10.75
2022-09-25T07:03:37.958Z,11.02
2022-09-25T07:05:39.965Z,10.90
2022-09-25T07:07:41.706Z,11.18
2022-09-25T07:09:43.378Z,10.68
2022-09-25T07:11:46.940Z,12.57
2022-09-25T07:13:51.215Z,10.57
2022-09-25T07:15:59.990Z,10.30
2022-09-25T07:18:01.549Z,10.38
2022-09-25T07:20:03.709Z,10.95
2022-09-25T07:22:05.338Z,11.25
2022-09-25T07:24:08.423Z,10.88
2022-09-25T07:26:13.298Z,11.07
2022-09-25T07:28:16.061Z,10.32
2022-09-25T07:30:17.710Z,11.50
2022-09-25T07:32:20.625Z,11.45
2022-09-25T07:34:22.132Z,9.50
2022-09-25T07:36:25.705Z,11.25
2022-09-25T07:38:27.286Z,11.38
2022-09-25T07:40:32.153Z,10.35
2022-09-25T07:42:33.744Z,10.52
2022-09-25T07:44:38.341Z,10.50
2022-09-25T07:46:44.262Z,10.68
2022-09-25T07:48:49.864Z,10.80
2022-09-25T07:50:52.796Z,10.60
2022-09-25T07:52:54.605Z,10.90
2022-09-25T07:55:06.411Z,10.95
2022-09-25T07:57:08.410Z,11.25
2022-09-25T07:59:10.194Z,10.32
2022-09-25T08:01:13.363Z,11.20
2022-09-25T08:03:15.365Z,11.32
2022-09-25T08:05:19.713Z,10.57
2022-09-25T08:07:21.786Z,11.90
2022-09-25T08:09:23.430Z,11.25
2022-09-25T08:11:28.473Z,12.13
2022-09-25T08:13:32.664Z,11.52
2022-09-25T08:15:34.433Z,12.35
2022-09-25T08:17:36.333Z,11.07
2022-09-25T08:19:39.099Z,12.05
2022-09-25T08:21:40.906Z,11.43
2022-09-25T08:23:51.221Z,11.05
2022-09-25T08:25:54.001Z,11.13
2022-09-25T08:27:58.529Z,11.52
2022-09-25T08:30:00.177Z,10.85
2022-09-25T08:32:07.883Z,10.77
2022-09-25T08:34:38.887Z,10.40
2022-09-25T08:36:32.056Z,10.05
2022-09-25T08:38:33.750Z,10.20
2022-09-25T08:40:46.666Z,10.00
2022-09-25T08:42:53.705Z,9.48
2022-09-25T08:45:23.094Z,8.93
2022-09-25T08:47:46.876Z,9.70
2022-09-25T08:50:06.288Z,8.50
2022-09-25T08:52:14.411Z,9.52
2022-09-25T08:54:22.911Z,8.13
2022-09-25T08:56:32.649Z,8.60
2022-09-25T08:58:42.742Z,7.40
2022-09-25T09:00:45.547Z,9.00
2022-09-25T09:02:54.523Z,8.10
2022-09-25T09:04:59.802Z,7.68
2022-09-25T09:07:26.244Z,7.47
2022-09-25T09:09:36.651Z,8.05
2022-09-25T09:11:47.988Z,8.35
2022-09-25T09:13:58.736Z,7.15
2022-09-25T09:16:07.513Z,8.05
2022-09-25T09:18:21.439Z,8.40
2022-09-25T09:20:48.282Z,9.20
2022-09-25T09:22:52.718Z,9.18
2022-09-25T09:25:16.837Z,9.43
2022-09-25T09:27:27.125Z,9.80
2022-09-25T09:30:23.325Z,9.05
2022-09-25T09:32:31.585Z,9.15
2022-09-25T09:35:04.708Z,10.20
2022-09-25T09:37:19.669Z,8.57
2022-09-25T09:40:01.941Z,9.25
2022-09-25T09:42:19.913Z,8.77
2022-09-25T09:44:39.654Z,8.55
2022-09-25T09:47:08.698Z,8.45
2022-09-25T09:49:21.050Z,7.88
2022-09-25T09:51:32.123Z,8.13
2022-09-25T09:53:40.945Z,7.72
2022-09-25T09:55:51.250Z,7.80
2022-09-25T09:57:55.117Z,7.75
2022-09-25T10:00:05.472Z,7.15
2022-09-25T10:02:51.251Z,7.18
2022-09-25T10:04:58.484Z,6.80
2022-09-25T10:07:14.757Z,6.25
2022-09-25T10:09:17.289Z,6.75
2022-09-25T10:11:21.001Z,7.25
2022-09-25T10:13:38.271Z,6.80
2022-09-25T10:15:46.395Z,7.40
2022-09-25T10:17:48.229Z,6.47
2022-09-25T10:20:00.820Z,6.93
2022-09-25T10:22:16.832Z,6.50
2022-09-25T10:24:51.303Z,6.38
2022-09-25T10:26:52.833Z,7.07
2022-09-25T10:28:59.272Z,6.07
2022-09-25T10:31:03.010Z,6.72
2022-09-25T10:33:14.402Z,6.45
2022-09-25T10:35:20.047Z,6.25
2022-09-25T10:37:22.549Z,6.25
2022-09-25T10:39:44.852Z,7.10
2022-09-25T10:41:47.352Z,6.93
2022-09-25T10:43:58.639Z,6.93
2022-09-25T10:46:14.148Z,7.45
2022-09-25T10:48:49.844Z,5.97
2022-09-25T10:51:08.863Z,6.30
2022-09-25T10:53:30.704Z,6.10
2022-09-25T10:55:41.689Z,4.85
2022-09-25T10:57:46.974Z,3.80
2022-09-25T10:59:51.363Z,2.80
2022-09-25T11:01:55.973Z,2.17
2022-09-25T11:03:58.824Z,1.90
2022-09-25T11:06:08.873Z,2.20
2022-09-25T11:08:16.195Z,2.33
2022-09-25T11:10:36.318Z,2.20
2022-09-25T11:12:39.738Z,1.85
2022-09-25T11:14:55.385Z,1.70
2022-09-25T11:17:00.308Z,1.50
2022-09-25T11:19:13.179Z,1.45
2022-09-25T11:21:28.053Z,1.10
2022-09-25T11:23:38.512Z,1.35
2022-09-25T11:25:59.771Z,1.52
2022-09-25T11:28:03.138Z,1.80
2022-09-25T11:30:17.055Z,1.95
2022-09-25T11:32:52.236Z,2.08
2022-09-25T11:35:09.531Z,1.60
2022-09-25T11:37:20.731Z,1.60
2022-09-25T11:40:04.296Z,1.90
2022-09-25T11:42:25.169Z,2.88
2022-09-25T11:44:36.487Z,2.88
2022-09-25T11:46:50.521Z,2.28
2022-09-25T11:49:27.070Z,1.95
2022-09-25T11:51:42.149Z,1.58
2022-09-25T11:54:31.921Z,2.00
2022-09-25T11:56:41.778Z,2.17
2022-09-25T11:59:21.542Z,2.15
2022-09-25T12:01:39.038Z,1.65
2022-09-25T12:04:14.667Z,1.40
2022-09-25T12:06:28.214Z,1.45
2022-09-25T12:08:51.144Z,1.38
2022-09-25T12:10:55.582Z,1.20
2022-09-25T12:13:08.443Z,1.40
2022-09-25T12:15:36.269Z,1.45
2022-09-25T12:17:55.926Z,1.27
2022-09-25T12:20:15.175Z,1.60
2022-09-25T12:22:30.884Z,2.20
2022-09-25T12:24:57.290Z,2.20
2022-09-25T12:27:07.552Z,3.50
2022-09-25T12:29:29.068Z,4.07
2022-09-25T12:32:10.277Z,4.55
2022-09-25T12:34:43.943Z,4.22
2022-09-25T12:36:54.459Z,3.45
2022-09-25T12:39:05.215Z,3.20
2022-09-25T12:41:24.778Z,2.63
2022-09-25T12:43:28.386Z,2.00
2022-09-25T12:45:48.232Z,1.77
2022-09-25T12:48:12.634Z,1.77
2022-09-25T12:50:23.645Z,1.85
2022-09-25T12:52:31.010Z,1.70
2022-09-25T12:54:47.829Z,1.70
2022-09-25T12:57:16.778Z,1.50
2022-09-25T12:59:33.731Z,1.67
2022-09-25T13:02:11.622Z,1.30
2022-09-25T13:04:47.803Z,1.67
2022-09-25T13:07:06.876Z,1.60
2022-09-25T13:09:30.380Z,1.60
2022-09-25T13:11:50.944Z,1.42
2022-09-25T13:13:55.209Z,1.30
2022-09-25T13:15:59.567Z,1.40
2022-09-25T13:18:02.913Z,1.25
2022-09-25T13:20:26.477Z,1.48
2022-09-25T13:22:27.976Z,2.10
2022-09-25T13:24:31.073Z,2.45
2022-09-25T13:26:52.738Z,2.53
2022-09-25T13:29:14.251Z,2.58
2022-09-25T13:31:32.037Z,2.45
2022-09-25T13:33:42.586Z,2.08
2022-09-25T13:35:46.073Z,2.15
2022-09-25T13:37:52.978Z,2.40
2022-09-25T13:40:13.900Z,1.75
2022-09-25T13:42:37.557Z,2.20
2022-09-25T13:44:42.296Z,2.13
2022-09-25T13:46:43.899Z,2.40
2022-09-25T13:48:46.022Z,2.47
2022-09-25T13:50:52.835Z,2.70
2022-09-25T13:53:20.215Z,2.63
2022-09-25T13:55:24.931Z,2.42
2022-09-25T13:57:55.885Z,2.60
2022-09-25T14:00:03.958Z,2.08
2022-09-25T14:02:46.622Z,2.17
2022-09-25T14:04:48.705Z,1.95
2022-09-25T14:07:05.736Z,1.85
2022-09-25T14:09:20.927Z,1.77
2022-09-25T14:11:29.128Z,1.90
2022-09-25T14:13:32.505Z,1.70
2022-09-25T14:15:38.905Z,1.70
2022-09-25T14:17:44.611Z,1.70
2022-09-25T14:19:52.633Z,1.67
2022-09-25T14:21:54.998Z,1.80
2022-09-25T14:24:32.191Z,1.90
2022-09-25T14:26:33.726Z,1.40
2022-09-25T14:28:45.336Z,1.80
2022-09-25T14:30:54.270Z,1.40
2022-09-25T14:33:43.857Z,1.35
2022-09-25T14:36:23.034Z,1.38
2022-09-25T14:38:41.767Z,1.30
2022-09-25T14:41:12.668Z,1.20
2022-09-25T14:46:00.306Z,1.25
2022-09-25T14:48:05.621Z,1.58
2022-09-25T14:50:19.776Z,1.38
2022-09-25T14:52:29.703Z,1.48
2022-09-25T14:54:38.230Z,1.45
2022-09-25T14:56:40.411Z,1.30
2022-09-25T14:58:49.599Z,1.25
2022-09-25T15:00:56.315Z,1.50
2022-09-25T15:02:58.637Z,1.45
2022-09-25T15:05:23.206Z,1.20
2022-09-25T15:07:26.131Z,1.17
2022-09-25T15:09:35.109Z,1.23
2022-09-25T15:11:43.621Z,1.27
2022-09-25T15:13:46.025Z,1.27
2022-09-25T15:16:12.769Z,1.25
2022-09-25T15:18:14.416Z,1.25
2022-09-25T15:20:20.799Z,1.40
2022-09-25T15:22:24.186Z,1.50
2022-09-25T15:24:31.846Z,1.52
2022-09-25T15:26:41.421Z,1.35
2022-09-25T15:28:43.245Z,1.40
2022-09-25T15:30:46.461Z,1.70
2022-09-25T15:32:58.360Z,2.42
2022-09-25T15:35:18.420Z,4.38
2022-09-25T15:37:29.113Z,3.58
2022-09-25T15:39:30.609Z,2.83
2022-09-25T15:41:32.314Z,2.20
2022-09-25T15:43:34.513Z,2.20
2022-09-25T15:45:49.203Z,2.25
2022-09-25T15:47:53.783Z,2.00
2022-09-25T15:49:55.946Z,1.65
2022-09-25T15:52:01.371Z,1.55
2022-09-25T15:54:29.454Z,1.50
2022-09-25T15:56:35.761Z,1.50
2022-09-25T15:58:52.550Z,1.90
2022-09-25T16:01:19.613Z,2.00
2022-09-25T16:03:45.944Z,1.88
2022-09-25T16:05:49.876Z,1.90
2022-09-25T16:07:57.483Z,1.70
2022-09-25T16:10:19.349Z,1.38
2022-09-25T16:12:46.021Z,1.60
2022-09-25T16:14:48.911Z,1.70
2022-09-25T16:16:51.227Z,1.63
2022-09-25T16:18:54.578Z,1.63
2022-09-25T16:21:20.801Z,1.58
2022-09-25T16:23:28.934Z,1.50
2022-09-25T16:25:34.741Z,1.50
2022-09-25T16:27:37.207Z,1.60
2022-09-25T16:29:40.735Z,1.63
2022-09-25T16:31:44.694Z,1.38
2022-09-25T16:33:51.769Z,1.55
2022-09-25T16:36:18.589Z,1.90
2022-09-25T16:38:33.198Z,2.60
2022-09-25T16:40:38.622Z,3.60
2022-09-25T16:42:43.621Z,4.57
2022-09-25T16:44:47.597Z,6.30
2022-09-25T16:46:55.111Z,8.13
2022-09-25T16:49:01.390Z,9.45
2022-09-25T16:51:05.744Z,9.10
2022-09-25T16:53:07.424Z,8.63
2022-09-25T16:55:21.362Z,7.60
2022-09-25T16:57:25.467Z,6.13
2022-09-25T16:59:28.454Z,5.53
2022-09-25T17:01:30.169Z,4.45
2022-09-25T17:03:49.755Z,3.80
2022-09-25T17:05:54.239Z,3.70
2022-09-25T17:08:00.110Z,3.20
2022-09-25T17:10:02.467Z,2.92
2022-09-25T17:12:10.722Z,2.92
2022-09-25T17:14:23.910Z,2.97
2022-09-25T17:16:25.442Z,3.60
2022-09-25T17:18:27.088Z,3.83
2022-09-25T17:20:33.957Z,3.70
2022-09-25T17:22:35.539Z,3.85
2022-09-25T17:24:37.360Z,3.97
2022-09-25T17:26:40.460Z,4.38
2022-09-25T17:28:42.361Z,4.00
2022-09-25T17:30:45.313Z,4.28
2022-09-25T17:32:50.704Z,3.33
2022-09-25T17:34:56.451Z,3.80
2022-09-25T17:37:04.574Z,3.70
2022-09-25T17:39:06.152Z,3.80
2022-09-25T17:41:20.713Z,3.75
2022-09-25T17:43:23.347Z,3.90
2022-09-25T17:45:37.969Z,3.95
2022-09-25T17:47:39.679Z,3.95
2022-09-25T17:49:41.907Z,4.20
2022-09-25T17:51:47.000Z,4.05
2022-09-25T17:53:56.012Z,3.75
2022-09-25T17:55:58.987Z,3.22
2022-09-25T17:58:00.653Z,3.10
2022-09-25T18:00:02.927Z,2.83
2022-09-25T18:02:14.780Z,2.55
2022-09-25T18:04:25.853Z,2.60
2022-09-25T18:06:29.849Z,2.20
2022-09-25T18:08:35.139Z,2.40
2022-09-25T18:10:45.078Z,2.15
2022-09-25T18:12:46.995Z,1.90
2022-09-25T18:14:52.179Z,2.08
2022-09-25T18:16:53.815Z,2.17
2022-09-25T18:19:14.333Z,1.95
2022-09-25T18:21:35.471Z,2.40
2022-09-25T18:23:38.826Z,2.13
2022-09-25T18:25:41.317Z,1.98
2022-09-25T18:27:44.008Z,2.17
2022-09-25T18:29:48.676Z,2.22
2022-09-25T18:31:50.959Z,2.42
2022-09-25T18:33:55.812Z,2.72
2022-09-25T18:35:57.769Z,2.33
2022-09-25T18:37:59.880Z,2.53
2022-09-25T18:40:01.705Z,2.10
2022-09-25T18:42:03.888Z,2.30
2022-09-25T18:44:08.595Z,2.00
2022-09-25T18:46:10.760Z,2.38
2022-09-25T18:48:12.534Z,2.20
2022-09-25T18:50:19.617Z,2.33
2022-09-25T18:52:22.828Z,2.03
2022-09-25T18:54:24.776Z,2.25
2022-09-25T18:56:29.002Z,2.28
2022-09-25T18:58:30.733Z,2.28
2022-09-25T19:00:33.441Z,2.40
2022-09-25T19:02:41.307Z,2.30
2022-09-25T19:04:43.137Z,2.20
2022-09-25T19:06:44.726Z,2.42
2022-09-25T19:08:53.107Z,2.33
2022-09-25T19:10:54.627Z,2.25
2022-09-25T19:12:56.252Z,2.60
2022-09-25T19:14:57.984Z,2.40
2022-09-25T19:16:59.705Z,2.30
2022-09-25T19:19:03.502Z,2.30
2022-09-25T19:21:05.150Z,2.20
2022-09-25T19:23:09.170Z,2.50
2022-09-25T19:25:11.227Z,2.35
2022-09-25T19:27:17.382Z,2.33
2022-09-25T19:29:22.163Z,2.15
2022-09-25T19:31:25.898Z,2.40
2022-09-25T19:33:36.950Z,2.90
2022-09-25T19:35:38.357Z,2.40
2022-09-25T19:37:41.920Z,2.40
2022-09-25T19:40:02.789Z,2.38
2022-09-25T19:42:05.217Z,2.38
2022-09-25T19:44:14.260Z,2.55
2022-09-25T19:46:20.034Z,2.60
2022-09-25T19:48:27.673Z,2.22
2022-09-25T19:50:31.080Z,2.53
2022-09-25T19:52:32.905Z,3.10
2022-09-25T19:54:34.637Z,2.53
2022-09-25T19:56:40.926Z,2.45
2022-09-25T19:58:43.185Z,2.72
2022-09-25T20:00:45.546Z,2.80
2022-09-25T20:02:47.663Z,2.85
2022-09-25T20:04:49.347Z,2.50
2022-09-25T20:06:50.985Z,2.63
2022-09-25T20:08:57.581Z,2.92
2022-09-25T20:11:18.592Z,2.78
2022-09-25T20:13:20.274Z,2.53
2022-09-25T20:15:26.428Z,3.08
2022-09-25T20:17:28.057Z,3.13
2022-09-25T20:19:31.112Z,3.03
2022-09-25T20:21:38.164Z,2.95
2022-09-25T20:23:42.527Z,2.78
2022-09-25T20:25:44.192Z,3.03
2022-09-25T20:27:55.078Z,2.72
2022-09-25T20:29:56.860Z,3.00
2022-09-25T20:31:58.498Z,3.13
2022-09-25T20:34:00.159Z,3.10
2022-09-25T20:36:05.318Z,2.75
2022-09-25T20:38:11.016Z,3.00
2022-09-25T20:40:14.662Z,3.20
2022-09-25T20:42:21.652Z,2.80
2022-09-25T20:44:23.433Z,2.85
2022-09-25T20:46:28.866Z,2.70
2022-09-25T20:48:32.240Z,2.97
2022-09-25T20:50:33.833Z,2.88
2022-09-25T20:52:35.500Z,2.65
2022-09-25T20:54:37.232Z,2.97
2022-09-25T20:56:43.802Z,2.65
2022-09-25T20:58:50.720Z,2.80
2022-09-25T21:01:02.919Z,2.88
2022-09-25T21:03:05.235Z,2.65
2022-09-25T21:05:07.515Z,2.88
2022-09-25T21:07:11.954Z,2.70
2022-09-25T21:09:21.237Z,2.55
2022-09-25T21:11:26.592Z,2.75
2022-09-25T21:13:32.455Z,2.35
2022-09-25T21:15:34.186Z,2.60
2022-09-25T21:17:35.836Z,2.63
2022-09-25T21:19:37.551Z,2.35
2022-09-25T21:21:39.117Z,2.25
2022-09-25T21:23:42.403Z,2.15
2022-09-25T21:25:47.112Z,2.10
2022-09-25T21:27:48.760Z,2.30
2022-09-25T21:29:50.338Z,2.30
2022-09-25T21:31:52.325Z,2.20
2022-09-25T21:33:58.194Z,2.22
2022-09-25T21:36:00.321Z,2.40
2022-09-25T21:38:04.115Z,2.22
2022-09-25T21:40:08.210Z,2.33
2022-09-25T21:42:10.013Z,2.25
2022-09-25T21:44:14.851Z,2.10
2022-09-25T21:46:19.188Z,2.80
2022-09-25T21:48:20.793Z,2.28
2022-09-25T21:50:22.338Z,2.45
2022-09-25T21:52:25.491Z,4.85
2022-09-25T21:54:30.511Z,4.43
2022-09-25T21:56:32.736Z,4.05
2022-09-25T21:58:35.258Z,4.03
2022-09-25T22:00:36.815Z,3.33
2022-09-25T22:02:38.502Z,2.78
2022-09-25T22:04:40.052Z,2.50
2022-09-25T22:06:47.398Z,2.13
2022-09-25T22:08:55.603Z,2.10
2022-09-25T22:10:59.205Z,2.08
2022-09-25T22:13:00.851Z,1.98
2022-09-25T22:15:02.417Z,1.77
2022-09-25T22:17:04.072Z,1.83
2022-09-25T22:19:13.949Z,1.67
2022-09-25T22:21:19.028Z,1.70
2022-09-25T22:23:21.612Z,1.95
2022-09-25T22:25:24.393Z,1.50
2022-09-25T22:27:30.740Z,1.77
2022-09-25T22:29:35.036Z,1.90
2022-09-25T22:31:38.510Z,1.70
2022-09-25T22:33:43.545Z,1.85
2022-09-25T22:35:45.377Z,1.80
2022-09-25T22:37:46.810Z,1.67
2022-09-25T22:39:48.376Z,2.10
2022-09-25T22:41:54.443Z,1.80
2022-09-25T22:43:58.472Z,2.15
2022-09-25T22:46:06.087Z,2.63
2022-09-25T22:48:16.343Z,2.45
2022-09-25T22:50:17.981Z,1.90
2022-09-25T22:52:19.523Z,2.38
2022-09-25T22:54:22.321Z,1.70
2022-09-25T22:56:29.111Z,1.98
2022-09-25T22:58:30.858Z,1.73
2022-09-25T23:00:34.500Z,1.80
2022-09-25T23:02:36.665Z,1.95
2022-09-25T23:04:38.779Z,1.70
2022-09-25T23:06:43.918Z,1.80
2022-09-25T23:08:51.116Z,1.63
2022-09-25T23:11:06.563Z,1.55
2022-09-25T23:13:09.315Z,1.90
2022-09-25T23:15:11.331Z,1.50
2022-09-25T23:17:13.040Z,1.55
2022-09-25T23:19:15.599Z,1.50
2022-09-25T23:21:17.676Z,1.45
2022-09-25T23:23:21.394Z,1.65
2022-09-25T23:25:23.698Z,1.70
2022-09-25T23:27:26.486Z,1.67
2022-09-25T23:29:27.960Z,1.90
2022-09-25T23:31:31.086Z,2.00
2022-09-25T23:33:33.645Z,1.70
2022-09-25T23:35:35.403Z,1.95
2022-09-25T23:37:36.950Z,1.67
2022-09-25T23:39:39.087Z,1.90
2022-09-25T23:41:40.731Z,1.77
2022-09-25T23:43:43.300Z,1.70
2022-09-25T23:45:45.207Z,1.95
2022-09-25T23:47:47.066Z,1.92
2022-09-25T23:49:48.629Z,1.90
2022-09-25T23:51:50.437Z,1.98
2022-09-25T23:53:54.115Z,2.10
2022-09-25T23:55:55.577Z,2.03
2022-09-25T23:57:57.163Z,1.92
2022-09-25T23:59:59.176Z,1.92
